sensor_id;sensor_type;location;lat;lon;timestamp;noise_LAeq;noise_LA_min;noise_LA_max;noise_LA01;noise_LA95
69615;Laerm;56821;52.486;4.680;2023-08-30T00:00:06;47.08;46.22;49.41;;
69615;Laerm;56821;52.486;4.680;2023-08-30T00:00:17;47.08;46.28;48.61;;
69615;Laerm;56821;52.486;4.680;2023-08-30T00:00:28;47.08;46.22;48.47;;
69615;Laerm;56821;52.486;4.680;2023-08-30T00:00:39;46.96;46.11;47.85;;
69615;Laerm;56821;52.486;4.680;2023-08-30T00:00:49;46.95;46.21;47.72;;
69615;Laerm;56821;52.486;4.680;2023-08-30T00:00:59;46.95;45.83;47.82;;
69615;Laerm;56821;52.486;4.680;2023-08-30T00:01:09;46.95;45.97;47.91;;
69615;Laerm;56821;52.486;4.680;2023-08-30T00:01:20;46.97;45.99;48.31;;
69615;Laerm;56821;52.486;4.680;2023-08-30T00:01:30;46.99;46.01;47.76;;
69615;Laerm;56821;52.486;4.680;2023-08-30T00:01:40;47.02;46.08;48.30;;
69615;Laerm;56821;52.486;4.680;2023-08-30T00:01:51;47.07;45.98;48.64;;
69615;Laerm;56821;52.486;4.680;2023-08-30T00:02:01;47.11;45.99;48.72;;
69615;Laerm;56821;52.486;4.680;2023-08-30T00:02:11;47.07;46.20;48.82;;
69615;Laerm;56821;52.486;4.680;2023-08-30T00:02:22;47.11;46.27;48.95;;
69615;Laerm;56821;52.486;4.680;2023-08-30T00:02:32;47.06;46.13;48.59;;
69615;Laerm;56821;52.486;4.680;2023-08-30T00:02:43;47.08;46.21;48.93;;
69615;Laerm;56821;52.486;4.680;2023-08-30T00:02:53;47.08;46.21;48.60;;
69615;Laerm;56821;52.486;4.680;2023-08-30T00:03:03;47.03;46.22;48.24;;
69615;Laerm;56821;52.486;4.680;2023-08-30T00:03:13;46.95;45.96;48.28;;
69615;Laerm;56821;52.486;4.680;2023-08-30T00:03:24;46.94;45.85;48.04;;
69615;Laerm;56821;52.486;4.680;2023-08-30T00:03:34;46.94;45.95;47.62;;
69615;Laerm;56821;52.486;4.680;2023-08-30T00:03:44;46.91;46.04;47.72;;
69615;Laerm;56821;52.486;4.680;2023-08-30T00:03:54;46.92;46.04;47.63;;
69615;Laerm;56821;52.486;4.680;2023-08-30T00:04:05;46.94;46.12;47.66;;
69615;Laerm;56821;52.486;4.680;2023-08-30T00:04:15;46.94;45.85;47.89;;
69615;Laerm;56821;52.486;4.680;2023-08-30T00:04:25;46.92;45.83;47.82;;
69615;Laerm;56821;52.486;4.680;2023-08-30T00:04:35;47.03;46.08;48.29;;
69615;Laerm;56821;52.486;4.680;2023-08-30T00:04:46;46.97;46.01;48.62;;
69615;Laerm;56821;52.486;4.680;2023-08-30T00:04:59;46.92;46.06;47.61;;
69615;Laerm;56821;52.486;4.680;2023-08-30T00:05:10;46.99;46.17;47.99;;
69615;Laerm;56821;52.486;4.680;2023-08-30T00:05:20;47.04;45.91;48.02;;
69615;Laerm;56821;52.486;4.680;2023-08-30T00:05:30;47.06;45.89;48.53;;
69615;Laerm;56821;52.486;4.680;2023-08-30T00:05:41;47.11;46.16;49.40;;
69615;Laerm;56821;52.486;4.680;2023-08-30T00:05:51;47.00;45.94;48.32;;
69615;Laerm;56821;52.486;4.680;2023-08-30T00:06:02;47.07;46.10;48.38;;
69615;Laerm;56821;52.486;4.680;2023-08-30T00:06:12;47.05;46.12;48.39;;
69615;Laerm;56821;52.486;4.680;2023-08-30T00:06:23;47.05;46.01;48.80;;
69615;Laerm;56821;52.486;4.680;2023-08-30T00:06:33;47.06;46.05;48.10;;
69615;Laerm;56821;52.486;4.680;2023-08-30T00:06:43;47.37;46.19;50.05;;
69615;Laerm;56821;52.486;4.680;2023-08-30T00:06:54;47.03;46.03;48.48;;
69615;Laerm;56821;52.486;4.680;2023-08-30T00:07:04;47.06;46.11;48.58;;
69615;Laerm;56821;52.486;4.680;2023-08-30T00:07:14;47.09;46.10;48.72;;
69615;Laerm;56821;52.486;4.680;2023-08-30T00:07:24;47.04;46.20;48.33;;
69615;Laerm;56821;52.486;4.680;2023-08-30T00:07:35;47.08;46.13;48.44;;
69615;Laerm;56821;52.486;4.680;2023-08-30T00:07:45;47.08;46.20;48.75;;
69615;Laerm;56821;52.486;4.680;2023-08-30T00:07:55;47.09;46.16;48.43;;
69615;Laerm;56821;52.486;4.680;2023-08-30T00:08:06;47.08;45.98;48.30;;
69615;Laerm;56821;52.486;4.680;2023-08-30T00:08:16;47.09;46.22;48.25;;
69615;Laerm;56821;52.486;4.680;2023-08-30T00:08:30;47.09;46.00;48.50;;
69615;Laerm;56821;52.486;4.680;2023-08-30T00:08:40;47.05;45.95;48.35;;
69615;Laerm;56821;52.486;4.680;2023-08-30T00:08:50;47.08;46.07;48.60;;
69615;Laerm;56821;52.486;4.680;2023-08-30T00:09:00;47.06;46.02;48.23;;
69615;Laerm;56821;52.486;4.680;2023-08-30T00:09:11;47.08;46.18;48.35;;
69615;Laerm;56821;52.486;4.680;2023-08-30T00:09:22;47.05;46.06;48.25;;
69615;Laerm;56821;52.486;4.680;2023-08-30T00:09:33;47.07;46.10;48.11;;
69615;Laerm;56821;52.486;4.680;2023-08-30T00:09:43;47.03;46.09;48.01;;
69615;Laerm;56821;52.486;4.680;2023-08-30T00:09:53;47.05;46.24;48.31;;
69615;Laerm;56821;52.486;4.680;2023-08-30T00:10:04;47.05;45.86;48.73;;
69615;Laerm;56821;52.486;4.680;2023-08-30T00:10:14;47.03;45.98;48.78;;
69615;Laerm;56821;52.486;4.680;2023-08-30T00:10:24;47.03;45.97;47.92;;
69615;Laerm;56821;52.486;4.680;2023-08-30T00:10:34;46.98;46.19;47.99;;
69615;Laerm;56821;52.486;4.680;2023-08-30T00:10:45;46.97;45.96;47.97;;
69615;Laerm;56821;52.486;4.680;2023-08-30T00:10:55;46.99;46.18;47.95;;
69615;Laerm;56821;52.486;4.680;2023-08-30T00:11:08;47.14;46.09;48.52;;
69615;Laerm;56821;52.486;4.680;2023-08-30T00:11:18;47.21;46.19;48.60;;
69615;Laerm;56821;52.486;4.680;2023-08-30T00:11:28;47.23;46.27;48.28;;
69615;Laerm;56821;52.486;4.680;2023-08-30T00:11:40;47.19;46.10;48.50;;
69615;Laerm;56821;52.486;4.680;2023-08-30T00:11:50;47.23;46.29;48.65;;
69615;Laerm;56821;52.486;4.680;2023-08-30T00:12:00;47.20;46.14;48.08;;
69615;Laerm;56821;52.486;4.680;2023-08-30T00:12:10;47.21;46.34;48.24;;
69615;Laerm;56821;52.486;4.680;2023-08-30T00:12:21;47.23;46.52;48.35;;
69615;Laerm;56821;52.486;4.680;2023-08-30T00:12:31;47.35;46.34;48.88;;
69615;Laerm;56821;52.486;4.680;2023-08-30T00:12:42;47.30;45.89;49.23;;
69615;Laerm;56821;52.486;4.680;2023-08-30T00:12:52;47.26;46.22;48.27;;
69615;Laerm;56821;52.486;4.680;2023-08-30T00:13:02;47.28;46.22;48.38;;
69615;Laerm;56821;52.486;4.680;2023-08-30T00:13:12;47.24;46.32;48.34;;
69615;Laerm;56821;52.486;4.680;2023-08-30T00:13:23;47.21;46.23;48.28;;
69615;Laerm;56821;52.486;4.680;2023-08-30T00:13:33;46.97;46.14;47.71;;
69615;Laerm;56821;52.486;4.680;2023-08-30T00:13:43;47.00;46.03;48.07;;
69615;Laerm;56821;52.486;4.680;2023-08-30T00:14:01;47.13;46.11;48.89;;
69615;Laerm;56821;52.486;4.680;2023-08-30T00:14:12;47.89;46.20;49.84;;
69615;Laerm;56821;52.486;4.680;2023-08-30T00:14:22;47.23;46.28;49.23;;
69615;Laerm;56821;52.486;4.680;2023-08-30T00:14:32;47.71;46.30;49.18;;
69615;Laerm;56821;52.486;4.680;2023-08-30T00:14:43;48.40;46.60;50.08;;
69615;Laerm;56821;52.486;4.680;2023-08-30T00:14:53;47.59;46.20;50.23;;
69615;Laerm;56821;52.486;4.680;2023-08-30T00:15:03;47.07;46.11;48.32;;
69615;Laerm;56821;52.486;4.680;2023-08-30T00:15:14;47.69;46.23;50.08;;
69615;Laerm;56821;52.486;4.680;2023-08-30T00:15:24;47.66;46.20;50.31;;
69615;Laerm;56821;52.486;4.680;2023-08-30T00:15:35;47.41;46.18;49.27;;
69615;Laerm;56821;52.486;4.680;2023-08-30T00:15:45;47.31;46.17;48.91;;
69615;Laerm;56821;52.486;4.680;2023-08-30T00:15:55;47.96;46.54;50.30;;
69615;Laerm;56821;52.486;4.680;2023-08-30T00:16:05;48.49;46.74;50.66;;
69615;Laerm;56821;52.486;4.680;2023-08-30T00:16:15;48.76;46.75;51.62;;
69615;Laerm;56821;52.486;4.680;2023-08-30T00:16:26;48.69;46.88;50.66;;
69615;Laerm;56821;52.486;4.680;2023-08-30T00:16:37;48.57;47.18;50.58;;
69615;Laerm;56821;52.486;4.680;2023-08-30T00:16:48;48.69;46.94;50.81;;
69615;Laerm;56821;52.486;4.680;2023-08-30T00:16:58;48.60;46.64;50.39;;
69615;Laerm;56821;52.486;4.680;2023-08-30T00:17:08;48.51;46.15;50.50;;
69615;Laerm;56821;52.486;4.680;2023-08-30T00:17:19;47.23;46.20;49.85;;
69615;Laerm;56821;52.486;4.680;2023-08-30T00:17:29;48.23;46.15;50.48;;
69615;Laerm;56821;52.486;4.680;2023-08-30T00:17:40;48.50;46.57;50.35;;
69615;Laerm;56821;52.486;4.680;2023-08-30T00:17:50;48.36;46.85;50.53;;
69615;Laerm;56821;52.486;4.680;2023-08-30T00:18:02;48.56;47.16;50.29;;
69615;Laerm;56821;52.486;4.680;2023-08-30T00:18:12;48.53;46.96;50.36;;
69615;Laerm;56821;52.486;4.680;2023-08-30T00:18:22;48.59;47.06;50.95;;
69615;Laerm;56821;52.486;4.680;2023-08-30T00:18:33;48.62;46.23;50.79;;
69615;Laerm;56821;52.486;4.680;2023-08-30T00:18:44;48.26;46.59;50.76;;
69615;Laerm;56821;52.486;4.680;2023-08-30T00:18:57;47.56;46.27;49.16;;
69615;Laerm;56821;52.486;4.680;2023-08-30T00:19:07;47.14;46.26;48.79;;
69615;Laerm;56821;52.486;4.680;2023-08-30T00:19:17;47.16;46.25;48.52;;
69615;Laerm;56821;52.486;4.680;2023-08-30T00:19:27;47.08;46.21;48.57;;
69615;Laerm;56821;52.486;4.680;2023-08-30T00:19:38;47.05;46.20;48.16;;
69615;Laerm;56821;52.486;4.680;2023-08-30T00:19:48;47.05;46.27;48.23;;
69615;Laerm;56821;52.486;4.680;2023-08-30T00:19:58;47.05;46.14;48.01;;
69615;Laerm;56821;52.486;4.680;2023-08-30T00:20:09;47.08;46.12;48.34;;
69615;Laerm;56821;52.486;4.680;2023-08-30T00:20:20;47.06;45.85;48.38;;
69615;Laerm;56821;52.486;4.680;2023-08-30T00:20:30;47.08;46.25;48.14;;
69615;Laerm;56821;52.486;4.680;2023-08-30T00:20:40;47.03;46.08;48.38;;
69615;Laerm;56821;52.486;4.680;2023-08-30T00:20:51;47.10;46.11;48.71;;
69615;Laerm;56821;52.486;4.680;2023-08-30T00:21:01;47.13;46.04;48.38;;
69615;Laerm;56821;52.486;4.680;2023-08-30T00:21:11;47.23;46.28;48.26;;
69615;Laerm;56821;52.486;4.680;2023-08-30T00:21:22;47.16;45.74;48.23;;
69615;Laerm;56821;52.486;4.680;2023-08-30T00:21:32;47.11;46.23;48.61;;
69615;Laerm;56821;52.486;4.680;2023-08-30T00:21:42;47.12;46.18;48.32;;
69615;Laerm;56821;52.486;4.680;2023-08-30T00:21:52;47.20;46.26;48.30;;
69615;Laerm;56821;52.486;4.680;2023-08-30T00:22:03;47.20;46.11;49.03;;
69615;Laerm;56821;52.486;4.680;2023-08-30T00:22:13;47.28;45.91;48.84;;
69615;Laerm;56821;52.486;4.680;2023-08-30T00:22:24;47.27;46.13;48.75;;
69615;Laerm;56821;52.486;4.680;2023-08-30T00:22:34;47.30;46.19;48.64;;
69615;Laerm;56821;52.486;4.680;2023-08-30T00:22:45;47.26;46.26;48.38;;
69615;Laerm;56821;52.486;4.680;2023-08-30T00:22:56;47.19;46.11;48.33;;
69615;Laerm;56821;52.486;4.680;2023-08-30T00:23:06;47.19;45.94;49.17;;
69615;Laerm;56821;52.486;4.680;2023-08-30T00:23:16;47.15;45.80;50.06;;
69615;Laerm;56821;52.486;4.680;2023-08-30T00:23:26;47.20;46.14;49.63;;
69615;Laerm;56821;52.486;4.680;2023-08-30T00:23:37;47.20;46.09;49.51;;
69615;Laerm;56821;52.486;4.680;2023-08-30T00:23:47;47.18;46.09;49.18;;
69615;Laerm;56821;52.486;4.680;2023-08-30T00:23:57;47.10;46.29;48.69;;
69615;Laerm;56821;52.486;4.680;2023-08-30T00:24:07;47.22;46.08;49.50;;
69615;Laerm;56821;52.486;4.680;2023-08-30T00:24:17;47.28;45.79;50.10;;
69615;Laerm;56821;52.486;4.680;2023-08-30T00:24:28;47.27;46.10;49.71;;
69615;Laerm;56821;52.486;4.680;2023-08-30T00:24:38;47.24;46.11;49.70;;
69615;Laerm;56821;52.486;4.680;2023-08-30T00:24:48;47.24;46.00;49.63;;
69615;Laerm;56821;52.486;4.680;2023-08-30T00:24:59;47.25;45.98;50.25;;
69615;Laerm;56821;52.486;4.680;2023-08-30T00:25:09;47.24;46.08;49.82;;
69615;Laerm;56821;52.486;4.680;2023-08-30T00:25:19;47.17;46.08;49.46;;
69615;Laerm;56821;52.486;4.680;2023-08-30T00:25:30;47.18;45.96;50.18;;
69615;Laerm;56821;52.486;4.680;2023-08-30T00:25:40;47.19;46.04;49.48;;
69615;Laerm;56821;52.486;4.680;2023-08-30T00:25:50;47.12;45.88;49.49;;
69615;Laerm;56821;52.486;4.680;2023-08-30T00:26:00;47.21;46.07;49.87;;
69615;Laerm;56821;52.486;4.680;2023-08-30T00:26:10;47.28;46.01;50.19;;
69615;Laerm;56821;52.486;4.680;2023-08-30T00:26:21;47.27;45.95;49.81;;
69615;Laerm;56821;52.486;4.680;2023-08-30T00:26:31;47.22;46.12;49.40;;
69615;Laerm;56821;52.486;4.680;2023-08-30T00:26:41;47.15;45.97;49.82;;
69615;Laerm;56821;52.486;4.680;2023-08-30T00:26:51;47.24;46.08;49.19;;
69615;Laerm;56821;52.486;4.680;2023-08-30T00:27:02;47.28;46.15;49.58;;
69615;Laerm;56821;52.486;4.680;2023-08-30T00:27:12;47.17;45.87;49.64;;
69615;Laerm;56821;52.486;4.680;2023-08-30T00:27:22;47.34;45.86;49.44;;
69615;Laerm;56821;52.486;4.680;2023-08-30T00:27:32;47.29;46.03;50.30;;
69615;Laerm;56821;52.486;4.680;2023-08-30T00:27:43;47.22;46.11;49.35;;
69615;Laerm;56821;52.486;4.680;2023-08-30T00:27:53;47.29;46.08;49.68;;
69615;Laerm;56821;52.486;4.680;2023-08-30T00:28:03;47.26;45.83;49.86;;
69615;Laerm;56821;52.486;4.680;2023-08-30T00:28:13;47.27;45.95;49.58;;
69615;Laerm;56821;52.486;4.680;2023-08-30T00:28:24;47.23;45.97;49.66;;
69615;Laerm;56821;52.486;4.680;2023-08-30T00:28:34;47.24;45.87;49.84;;
69615;Laerm;56821;52.486;4.680;2023-08-30T00:28:44;47.20;46.09;49.73;;
69615;Laerm;56821;52.486;4.680;2023-08-30T00:28:54;47.30;45.86;49.57;;
69615;Laerm;56821;52.486;4.680;2023-08-30T00:29:05;47.31;46.07;49.26;;
69615;Laerm;56821;52.486;4.680;2023-08-30T00:29:15;47.22;45.77;49.37;;
69615;Laerm;56821;52.486;4.680;2023-08-30T00:29:25;47.29;46.16;49.74;;
69615;Laerm;56821;52.486;4.680;2023-08-30T00:29:35;47.33;46.02;49.98;;
69615;Laerm;56821;52.486;4.680;2023-08-30T00:29:46;47.37;46.16;49.40;;
69615;Laerm;56821;52.486;4.680;2023-08-30T00:29:56;47.28;46.00;49.72;;
69615;Laerm;56821;52.486;4.680;2023-08-30T00:30:06;47.21;46.07;49.86;;
69615;Laerm;56821;52.486;4.680;2023-08-30T00:30:19;47.31;45.66;49.90;;
69615;Laerm;56821;52.486;4.680;2023-08-30T00:30:29;47.24;46.07;49.03;;
69615;Laerm;56821;52.486;4.680;2023-08-30T00:30:39;47.20;45.97;50.08;;
69615;Laerm;56821;52.486;4.680;2023-08-30T00:30:53;47.21;46.12;49.95;;
69615;Laerm;56821;52.486;4.680;2023-08-30T00:31:04;47.26;45.77;49.38;;
69615;Laerm;56821;52.486;4.680;2023-08-30T00:31:15;47.26;46.07;49.43;;
69615;Laerm;56821;52.486;4.680;2023-08-30T00:31:25;47.38;46.07;50.06;;
69615;Laerm;56821;52.486;4.680;2023-08-30T00:31:35;47.24;46.10;49.53;;
69615;Laerm;56821;52.486;4.680;2023-08-30T00:31:45;47.29;45.80;49.87;;
69615;Laerm;56821;52.486;4.680;2023-08-30T00:31:55;47.32;46.06;49.67;;
69615;Laerm;56821;52.486;4.680;2023-08-30T00:32:06;47.32;46.36;49.74;;
69615;Laerm;56821;52.486;4.680;2023-08-30T00:32:16;47.30;45.96;49.72;;
69615;Laerm;56821;52.486;4.680;2023-08-30T00:32:26;47.24;46.29;49.24;;
69615;Laerm;56821;52.486;4.680;2023-08-30T00:32:36;47.28;46.07;49.89;;
69615;Laerm;56821;52.486;4.680;2023-08-30T00:32:47;47.28;46.18;49.74;;
69615;Laerm;56821;52.486;4.680;2023-08-30T00:32:57;47.34;46.10;49.36;;
69615;Laerm;56821;52.486;4.680;2023-08-30T00:33:07;47.26;46.11;49.80;;
69615;Laerm;56821;52.486;4.680;2023-08-30T00:33:18;47.26;45.99;50.02;;
69615;Laerm;56821;52.486;4.680;2023-08-30T00:33:28;47.31;45.73;50.34;;
69615;Laerm;56821;52.486;4.680;2023-08-30T00:33:38;47.23;46.08;49.37;;
69615;Laerm;56821;52.486;4.680;2023-08-30T00:33:48;47.30;46.05;50.36;;
69615;Laerm;56821;52.486;4.680;2023-08-30T00:33:59;47.27;45.98;49.98;;
69615;Laerm;56821;52.486;4.680;2023-08-30T00:34:09;47.25;46.16;49.41;;
69615;Laerm;56821;52.486;4.680;2023-08-30T00:34:19;47.22;46.02;49.28;;
69615;Laerm;56821;52.486;4.680;2023-08-30T00:34:29;47.25;46.17;49.46;;
69615;Laerm;56821;52.486;4.680;2023-08-30T00:34:40;47.23;45.98;49.76;;
69615;Laerm;56821;52.486;4.680;2023-08-30T00:34:50;47.26;46.05;50.05;;
69615;Laerm;56821;52.486;4.680;2023-08-30T00:35:01;47.27;46.03;49.52;;
69615;Laerm;56821;52.486;4.680;2023-08-30T00:35:11;47.24;46.06;49.89;;
69615;Laerm;56821;52.486;4.680;2023-08-30T00:35:21;47.26;46.02;49.24;;
69615;Laerm;56821;52.486;4.680;2023-08-30T00:35:32;47.26;45.87;48.93;;
69615;Laerm;56821;52.486;4.680;2023-08-30T00:35:42;47.33;46.10;50.44;;
69615;Laerm;56821;52.486;4.680;2023-08-30T00:35:56;47.27;45.85;50.03;;
69615;Laerm;56821;52.486;4.680;2023-08-30T00:36:06;47.28;45.91;50.15;;
69615;Laerm;56821;52.486;4.680;2023-08-30T00:36:16;47.25;46.06;49.49;;
69615;Laerm;56821;52.486;4.680;2023-08-30T00:36:28;47.27;46.10;49.97;;
69615;Laerm;56821;52.486;4.680;2023-08-30T00:36:38;47.32;46.24;50.19;;
69615;Laerm;56821;52.486;4.680;2023-08-30T00:36:49;47.23;46.17;49.73;;
69615;Laerm;56821;52.486;4.680;2023-08-30T00:36:59;47.20;46.12;49.28;;
69615;Laerm;56821;52.486;4.680;2023-08-30T00:37:09;47.27;46.06;49.12;;
69615;Laerm;56821;52.486;4.680;2023-08-30T00:37:20;47.27;45.87;49.60;;
69615;Laerm;56821;52.486;4.680;2023-08-30T00:37:30;47.40;46.29;49.69;;
69615;Laerm;56821;52.486;4.680;2023-08-30T00:37:40;47.45;46.03;49.76;;
69615;Laerm;56821;52.486;4.680;2023-08-30T00:37:51;47.44;46.19;50.23;;
69615;Laerm;56821;52.486;4.680;2023-08-30T00:38:01;47.28;45.93;49.26;;
69615;Laerm;56821;52.486;4.680;2023-08-30T00:38:11;47.22;45.97;49.42;;
69615;Laerm;56821;52.486;4.680;2023-08-30T00:38:21;47.24;46.12;49.40;;
69615;Laerm;56821;52.486;4.680;2023-08-30T00:38:32;47.33;46.13;49.62;;
69615;Laerm;56821;52.486;4.680;2023-08-30T00:38:43;47.21;46.15;49.43;;
69615;Laerm;56821;52.486;4.680;2023-08-30T00:38:53;47.25;46.00;49.60;;
69615;Laerm;56821;52.486;4.680;2023-08-30T00:39:03;47.29;45.91;49.68;;
69615;Laerm;56821;52.486;4.680;2023-08-30T00:39:14;47.36;46.03;50.00;;
69615;Laerm;56821;52.486;4.680;2023-08-30T00:39:24;47.24;46.05;50.15;;
69615;Laerm;56821;52.486;4.680;2023-08-30T00:39:37;47.29;45.96;50.03;;
69615;Laerm;56821;52.486;4.680;2023-08-30T00:39:47;47.24;45.97;49.79;;
69615;Laerm;56821;52.486;4.680;2023-08-30T00:39:58;47.22;45.96;50.01;;
69615;Laerm;56821;52.486;4.680;2023-08-30T00:40:09;47.30;46.14;49.82;;
69615;Laerm;56821;52.486;4.680;2023-08-30T00:40:23;47.27;46.22;49.66;;
69615;Laerm;56821;52.486;4.680;2023-08-30T00:40:39;47.30;45.95;50.09;;
69615;Laerm;56821;52.486;4.680;2023-08-30T00:40:49;47.32;45.97;50.27;;
69615;Laerm;56821;52.486;4.680;2023-08-30T00:41:00;47.25;46.02;49.84;;
69615;Laerm;56821;52.486;4.680;2023-08-30T00:41:10;47.29;46.01;49.91;;
69615;Laerm;56821;52.486;4.680;2023-08-30T00:41:20;47.24;46.00;49.95;;
69615;Laerm;56821;52.486;4.680;2023-08-30T00:41:30;47.19;45.94;49.70;;
69615;Laerm;56821;52.486;4.680;2023-08-30T00:41:41;47.17;46.10;49.58;;
69615;Laerm;56821;52.486;4.680;2023-08-30T00:41:51;47.20;46.06;49.47;;
69615;Laerm;56821;52.486;4.680;2023-08-30T00:42:01;47.21;46.06;50.15;;
69615;Laerm;56821;52.486;4.680;2023-08-30T00:42:15;47.35;45.84;50.02;;
69615;Laerm;56821;52.486;4.680;2023-08-30T00:42:26;47.28;46.13;49.65;;
69615;Laerm;56821;52.486;4.680;2023-08-30T00:42:37;47.16;45.99;49.71;;
69615;Laerm;56821;52.486;4.680;2023-08-30T00:42:47;47.08;46.03;49.07;;
69615;Laerm;56821;52.486;4.680;2023-08-30T00:42:58;47.21;46.02;49.45;;
69615;Laerm;56821;52.486;4.680;2023-08-30T00:43:08;47.12;46.06;49.90;;
69615;Laerm;56821;52.486;4.680;2023-08-30T00:43:18;46.90;46.07;47.77;;
69615;Laerm;56821;52.486;4.680;2023-08-30T00:43:29;46.94;45.86;47.82;;
69615;Laerm;56821;52.486;4.680;2023-08-30T00:43:39;46.92;46.12;48.02;;
69615;Laerm;56821;52.486;4.680;2023-08-30T00:43:49;46.94;45.90;47.88;;
69615;Laerm;56821;52.486;4.680;2023-08-30T00:43:59;46.91;45.91;47.69;;
69615;Laerm;56821;52.486;4.680;2023-08-30T00:44:10;46.93;46.10;47.67;;
69615;Laerm;56821;52.486;4.680;2023-08-30T00:44:20;46.93;46.10;48.38;;
69615;Laerm;56821;52.486;4.680;2023-08-30T00:44:30;46.96;45.71;48.07;;
69615;Laerm;56821;52.486;4.680;2023-08-30T00:44:40;46.95;46.16;48.22;;
69615;Laerm;56821;52.486;4.680;2023-08-30T00:44:51;46.99;46.09;48.71;;
69615;Laerm;56821;52.486;4.680;2023-08-30T00:45:01;46.95;45.80;48.68;;
69615;Laerm;56821;52.486;4.680;2023-08-30T00:45:12;47.06;46.19;50.02;;
69615;Laerm;56821;52.486;4.680;2023-08-30T00:45:22;47.01;46.05;49.19;;
69615;Laerm;56821;52.486;4.680;2023-08-30T00:45:33;47.75;46.10;53.85;;
69615;Laerm;56821;52.486;4.680;2023-08-30T00:45:45;46.97;45.89;47.86;;
69615;Laerm;56821;52.486;4.680;2023-08-30T00:45:57;46.95;46.03;47.95;;
69615;Laerm;56821;52.486;4.680;2023-08-30T00:46:07;47.02;46.04;47.99;;
69615;Laerm;56821;52.486;4.680;2023-08-30T00:46:17;47.08;45.76;49.95;;
69615;Laerm;56821;52.486;4.680;2023-08-30T00:46:28;47.00;46.16;49.12;;
69615;Laerm;56821;52.486;4.680;2023-08-30T00:46:38;46.93;46.19;47.91;;
69615;Laerm;56821;52.486;4.680;2023-08-30T00:46:48;46.94;46.08;48.32;;
69615;Laerm;56821;52.486;4.680;2023-08-30T00:46:59;46.97;46.10;48.34;;
69615;Laerm;56821;52.486;4.680;2023-08-30T00:47:10;46.95;46.12;47.86;;
69615;Laerm;56821;52.486;4.680;2023-08-30T00:47:20;46.99;46.01;47.86;;
69615;Laerm;56821;52.486;4.680;2023-08-30T00:47:31;46.91;45.83;47.76;;
69615;Laerm;56821;52.486;4.680;2023-08-30T00:47:41;46.93;46.04;47.99;;
69615;Laerm;56821;52.486;4.680;2023-08-30T00:47:52;46.92;46.09;48.30;;
69615;Laerm;56821;52.486;4.680;2023-08-30T00:48:02;46.94;45.82;47.97;;
69615;Laerm;56821;52.486;4.680;2023-08-30T00:48:14;46.95;46.07;48.13;;
69615;Laerm;56821;52.486;4.680;2023-08-30T00:48:26;47.01;45.86;49.55;;
69615;Laerm;56821;52.486;4.680;2023-08-30T00:48:36;47.68;46.11;55.26;;
69615;Laerm;56821;52.486;4.680;2023-08-30T00:48:47;47.49;46.13;50.35;;
69615;Laerm;56821;52.486;4.680;2023-08-30T00:48:57;46.95;45.95;48.46;;
69615;Laerm;56821;52.486;4.680;2023-08-30T00:49:08;46.99;46.01;48.46;;
69615;Laerm;56821;52.486;4.680;2023-08-30T00:49:18;46.93;45.97;47.86;;
69615;Laerm;56821;52.486;4.680;2023-08-30T00:49:29;46.92;45.77;48.08;;
69615;Laerm;56821;52.486;4.680;2023-08-30T00:49:40;46.91;45.84;48.31;;
69615;Laerm;56821;52.486;4.680;2023-08-30T00:49:50;47.03;45.96;48.33;;
69615;Laerm;56821;52.486;4.680;2023-08-30T00:50:00;46.97;46.04;48.13;;
69615;Laerm;56821;52.486;4.680;2023-08-30T00:50:11;46.93;46.06;49.42;;
69615;Laerm;56821;52.486;4.680;2023-08-30T00:50:21;47.01;46.19;48.48;;
69615;Laerm;56821;52.486;4.680;2023-08-30T00:50:32;46.96;46.05;48.30;;
69615;Laerm;56821;52.486;4.680;2023-08-30T00:50:42;46.95;46.02;48.28;;
69615;Laerm;56821;52.486;4.680;2023-08-30T00:50:53;46.97;46.17;48.07;;
69615;Laerm;56821;52.486;4.680;2023-08-30T00:51:03;46.99;45.85;48.18;;
69615;Laerm;56821;52.486;4.680;2023-08-30T00:51:13;46.98;46.14;48.06;;
69615;Laerm;56821;52.486;4.680;2023-08-30T00:51:23;46.98;45.71;47.95;;
69615;Laerm;56821;52.486;4.680;2023-08-30T00:51:34;47.02;45.76;48.10;;
69615;Laerm;56821;52.486;4.680;2023-08-30T00:51:44;46.98;45.86;48.41;;
69615;Laerm;56821;52.486;4.680;2023-08-30T00:51:54;47.01;45.82;48.32;;
69615;Laerm;56821;52.486;4.680;2023-08-30T00:52:06;46.97;46.07;48.11;;
69615;Laerm;56821;52.486;4.680;2023-08-30T00:52:17;46.99;46.09;48.48;;
69615;Laerm;56821;52.486;4.680;2023-08-30T00:52:28;47.03;46.08;49.71;;
69615;Laerm;56821;52.486;4.680;2023-08-30T00:52:38;47.01;45.88;48.38;;
69615;Laerm;56821;52.486;4.680;2023-08-30T00:52:48;47.02;45.90;48.94;;
69615;Laerm;56821;52.486;4.680;2023-08-30T00:52:59;46.99;46.05;50.16;;
69615;Laerm;56821;52.486;4.680;2023-08-30T00:53:09;46.99;45.91;50.37;;
69615;Laerm;56821;52.486;4.680;2023-08-30T00:53:20;46.97;45.89;48.38;;
69615;Laerm;56821;52.486;4.680;2023-08-30T00:53:30;46.98;46.08;48.33;;
69615;Laerm;56821;52.486;4.680;2023-08-30T00:53:41;47.00;46.16;49.02;;
69615;Laerm;56821;52.486;4.680;2023-08-30T00:53:54;47.02;46.05;51.33;;
69615;Laerm;56821;52.486;4.680;2023-08-30T00:54:04;46.97;46.16;48.14;;
69615;Laerm;56821;52.486;4.680;2023-08-30T00:54:15;46.92;46.06;48.10;;
69615;Laerm;56821;52.486;4.680;2023-08-30T00:54:26;46.91;46.11;47.67;;
69615;Laerm;56821;52.486;4.680;2023-08-30T00:54:36;46.89;45.97;47.95;;
69615;Laerm;56821;52.486;4.680;2023-08-30T00:54:47;46.94;45.84;47.83;;
69615;Laerm;56821;52.486;4.680;2023-08-30T00:54:58;46.92;45.87;47.76;;
69615;Laerm;56821;52.486;4.680;2023-08-30T00:55:08;46.95;46.00;48.73;;
69615;Laerm;56821;52.486;4.680;2023-08-30T00:55:19;46.96;46.06;48.00;;
69615;Laerm;56821;52.486;4.680;2023-08-30T00:55:29;46.91;45.88;47.63;;
69615;Laerm;56821;52.486;4.680;2023-08-30T00:55:41;46.95;45.84;48.30;;
69615;Laerm;56821;52.486;4.680;2023-08-30T00:55:51;46.91;46.17;48.00;;
69615;Laerm;56821;52.486;4.680;2023-08-30T00:56:02;46.91;46.10;48.14;;
69615;Laerm;56821;52.486;4.680;2023-08-30T00:56:12;46.94;46.03;48.05;;
69615;Laerm;56821;52.486;4.680;2023-08-30T00:56:22;46.91;46.12;48.36;;
69615;Laerm;56821;52.486;4.680;2023-08-30T00:56:32;46.96;46.07;48.23;;
69615;Laerm;56821;52.486;4.680;2023-08-30T00:56:43;46.91;46.02;48.03;;
69615;Laerm;56821;52.486;4.680;2023-08-30T00:56:54;46.92;46.09;48.13;;
69615;Laerm;56821;52.486;4.680;2023-08-30T00:57:04;46.95;46.04;48.46;;
69615;Laerm;56821;52.486;4.680;2023-08-30T00:57:14;46.91;46.06;47.83;;
69615;Laerm;56821;52.486;4.680;2023-08-30T00:57:25;46.95;46.01;48.58;;
69615;Laerm;56821;52.486;4.680;2023-08-30T00:57:36;46.93;45.74;48.18;;
69615;Laerm;56821;52.486;4.680;2023-08-30T00:57:46;46.97;46.27;48.29;;
69615;Laerm;56821;52.486;4.680;2023-08-30T00:57:56;46.95;46.08;48.20;;
69615;Laerm;56821;52.486;4.680;2023-08-30T00:58:07;46.92;45.98;47.71;;
69615;Laerm;56821;52.486;4.680;2023-08-30T00:58:17;46.95;46.03;47.72;;
69615;Laerm;56821;52.486;4.680;2023-08-30T00:58:27;46.91;46.07;47.63;;
69615;Laerm;56821;52.486;4.680;2023-08-30T00:58:38;46.92;45.89;47.85;;
69615;Laerm;56821;52.486;4.680;2023-08-30T00:58:49;46.98;46.02;47.73;;
69615;Laerm;56821;52.486;4.680;2023-08-30T00:58:59;46.94;45.92;47.85;;